createdAt,value
2023-05-14T00:02:11.974Z,102567.00
2023-05-14T00:04:41.050Z,102559.80
2023-05-14T00:07:09.324Z,102559.40
2023-05-14T00:09:37.710Z,102558.60
2023-05-14T00:12:06.611Z,102557.40
2023-05-14T00:14:34.512Z,102564.00
2023-05-14T00:17:03.456Z,102557.60
2023-05-14T00:19:31.464Z,102558.60
2023-05-14T00:21:59.247Z,102564.60
2023-05-14T00:24:27.174Z,102559.80
2023-05-14T00:26:55.111Z,102557.60
2023-05-14T00:29:23.292Z,102553.60
2023-05-14T00:31:52.053Z,102549.20
2023-05-14T00:34:19.947Z,102545.20
2023-05-14T00:36:47.868Z,102544.60
2023-05-14T00:39:15.711Z,102546.40
2023-05-14T00:41:44.564Z,102540.80
2023-05-14T00:44:12.384Z,102544.20
2023-05-14T00:46:40.694Z,102542.80
2023-05-14T00:49:08.717Z,102542.60
2023-05-14T00:51:37.307Z,102540.00
2023-05-14T00:54:06.568Z,102540.20
2023-05-14T00:56:35.573Z,102534.20
2023-05-14T00:59:03.803Z,102537.00
2023-05-14T01:01:32.112Z,102538.40
2023-05-14T01:04:01.123Z,102534.40
2023-05-14T01:06:42.926Z,102532.80
2023-05-14T01:09:28.295Z,102536.00
2023-05-14T01:12:18.506Z,102534.20
2023-05-14T01:14:53.696Z,102533.20
2023-05-14T01:17:24.817Z,102529.00
2023-05-14T01:19:54.292Z,102530.80
2023-05-14T01:22:22.118Z,102536.20
2023-05-14T01:24:50.916Z,102532.20
2023-05-14T01:27:44.565Z,102532.40
2023-05-14T01:30:26.146Z,102531.00
2023-05-14T01:33:01.098Z,102530.60
2023-05-14T01:35:31.170Z,102531.40
2023-05-14T01:38:06.823Z,102529.80
2023-05-14T01:40:37.029Z,102530.60
2023-05-14T01:43:06.650Z,102532.20
2023-05-14T01:45:36.742Z,102532.40
2023-05-14T01:48:06.702Z,102530.80
2023-05-14T01:50:34.644Z,102529.60
2023-05-14T01:53:02.665Z,102529.40
2023-05-14T01:55:31.649Z,102526.60
2023-05-14T01:57:59.860Z,102527.20
2023-05-14T02:00:27.807Z,102529.40
2023-05-14T02:02:56.025Z,102525.40
2023-05-14T02:05:23.914Z,102527.00
2023-05-14T02:07:51.860Z,102533.80
2023-05-14T02:10:19.654Z,102529.20
2023-05-14T02:12:47.531Z,102527.60
2023-05-14T02:15:15.550Z,102525.80
2023-05-14T02:17:43.689Z,102527.40
2023-05-14T02:20:12.863Z,102529.20
2023-05-14T02:22:42.373Z,102528.80
2023-05-14T02:25:10.684Z,102535.20
2023-05-14T02:27:38.554Z,102530.60
2023-05-14T02:30:08.034Z,102530.00
2023-05-14T02:32:35.988Z,102533.60
2023-05-14T02:35:06.677Z,102530.40
2023-05-14T02:37:35.935Z,102526.00
2023-05-14T02:40:04.529Z,102522.60
2023-05-14T02:42:32.497Z,102520.00
2023-05-14T02:45:00.543Z,102522.20
2023-05-14T02:47:28.453Z,102521.60
2023-05-14T02:49:56.247Z,102519.40
2023-05-14T02:52:24.132Z,102520.80
2023-05-14T02:54:52.067Z,102516.00
2023-05-14T02:57:21.160Z,102515.80
2023-05-14T02:59:49.153Z,102509.80
2023-05-14T03:02:17.865Z,102511.00
2023-05-14T03:04:47.004Z,102503.20
2023-05-14T03:07:14.939Z,102500.60
2023-05-14T03:09:43.590Z,102502.20
2023-05-14T03:12:13.546Z,102499.80
2023-05-14T03:14:41.418Z,102502.40
2023-05-14T03:17:09.605Z,102503.60
2023-05-14T03:19:37.878Z,102510.40
2023-05-14T03:22:05.994Z,102506.00
2023-05-14T03:24:34.945Z,102508.20
2023-05-14T03:27:03.027Z,102511.60
2023-05-14T03:29:30.865Z,102516.20
2023-05-14T03:31:58.841Z,102517.80
2023-05-14T03:34:26.691Z,102521.40
2023-05-14T03:36:55.330Z,102521.20
2023-05-14T03:39:23.693Z,102519.80
2023-05-14T03:41:51.531Z,102520.80
2023-05-14T03:44:19.748Z,102520.40
2023-05-14T03:46:47.607Z,102515.40
2023-05-14T03:49:16.395Z,102511.20
2023-05-14T03:51:44.411Z,102506.00
2023-05-14T03:54:12.350Z,102502.60
2023-05-14T03:56:40.938Z,102502.80
2023-05-14T03:59:08.824Z,102501.80
2023-05-14T04:01:36.606Z,102498.60
2023-05-14T04:04:05.016Z,102493.40
2023-05-14T04:06:34.045Z,102495.40
2023-05-14T04:09:02.486Z,102490.00
2023-05-14T04:11:30.531Z,102485.40
2023-05-14T04:13:58.401Z,102487.60
2023-05-14T04:16:26.533Z,102486.80
2023-05-14T04:18:54.869Z,102480.20
2023-05-14T04:21:22.746Z,102482.40
2023-05-14T04:23:51.655Z,102486.60
2023-05-14T04:26:19.746Z,102480.60
2023-05-14T04:28:47.715Z,102486.40
2023-05-14T04:31:16.207Z,102483.80
2023-05-14T04:33:44.266Z,102485.00
2023-05-14T04:36:12.573Z,102484.80
2023-05-14T04:38:40.344Z,102483.20
2023-05-14T04:41:08.709Z,102484.80
2023-05-14T04:43:37.076Z,102483.60
2023-05-14T04:46:07.159Z,102483.40
2023-05-14T04:48:35.047Z,102482.80
2023-05-14T04:51:05.026Z,102480.40
2023-05-14T04:53:34.757Z,102478.20
2023-05-14T04:56:03.168Z,102474.60
2023-05-14T04:58:34.631Z,102469.20
2023-05-14T05:01:06.002Z,102466.40
2023-05-14T05:03:34.107Z,102461.80
2023-05-14T05:06:02.586Z,102459.60
2023-05-14T05:08:30.917Z,102466.00
2023-05-14T05:10:58.785Z,102460.60
2023-05-14T05:13:26.637Z,102462.60
2023-05-14T05:15:54.444Z,102460.60
2023-05-14T05:18:22.485Z,102463.00
2023-05-14T05:20:50.315Z,102465.00
2023-05-14T05:23:18.358Z,102462.60
2023-05-14T05:25:46.252Z,102460.00
2023-05-14T05:28:14.183Z,102461.40
2023-05-14T05:30:45.306Z,102463.40
2023-05-14T05:33:13.461Z,102465.20
2023-05-14T05:35:41.903Z,102461.00
2023-05-14T05:38:10.296Z,102462.60
2023-05-14T05:40:38.602Z,102457.60
2023-05-14T05:43:06.477Z,102460.60
2023-05-14T05:45:34.342Z,102461.40
2023-05-14T05:48:02.429Z,102463.40
2023-05-14T05:50:31.710Z,102465.60
2023-05-14T05:53:01.281Z,102465.80
2023-05-14T05:55:29.970Z,102466.60
2023-05-14T05:57:58.131Z,102464.00
2023-05-14T06:00:26.226Z,102460.80
2023-05-14T06:02:56.549Z,102459.80
2023-05-14T06:05:25.190Z,102458.60
2023-05-14T06:07:53.813Z,102459.20
2023-05-14T06:10:22.287Z,102452.60
2023-05-14T06:12:50.431Z,102452.40
2023-05-14T06:15:19.007Z,102456.40
2023-05-14T06:17:46.906Z,102452.40
2023-05-14T06:20:15.435Z,102443.40
2023-05-14T06:22:44.972Z,102445.20
2023-05-14T06:25:12.868Z,102444.00
2023-05-14T06:27:42.300Z,102439.00
2023-05-14T06:30:11.479Z,102433.80
2023-05-14T06:32:39.439Z,102434.40
2023-05-14T06:35:08.163Z,102431.60
2023-05-14T06:37:38.427Z,102430.80
2023-05-14T06:40:07.698Z,102425.80
2023-05-14T06:42:35.841Z,102426.00
2023-05-14T06:45:05.624Z,102419.60
2023-05-14T06:47:34.802Z,102412.40
2023-05-14T06:50:03.730Z,102410.80
2023-05-14T06:52:31.688Z,102408.00
2023-05-14T06:54:59.642Z,102410.60
2023-05-14T06:57:30.095Z,102414.20
2023-05-14T06:59:58.455Z,102408.60
2023-05-14T07:02:26.302Z,102403.00
2023-05-14T07:04:54.106Z,102400.20
2023-05-14T07:07:21.869Z,102396.60
2023-05-14T07:09:49.669Z,102393.40
2023-05-14T07:12:17.468Z,102392.60
2023-05-14T07:14:48.741Z,102390.40
2023-05-14T07:17:17.091Z,102384.40
2023-05-14T07:19:45.180Z,102386.40
2023-05-14T07:22:13.240Z,102385.80
2023-05-14T07:24:41.178Z,102386.60
2023-05-14T07:27:09.597Z,102384.40
2023-05-14T07:29:37.709Z,102384.80
2023-05-14T07:32:08.737Z,102383.40
2023-05-14T07:34:39.934Z,102386.20
2023-05-14T07:37:08.045Z,102383.00
2023-05-14T07:39:36.328Z,102382.80
2023-05-14T07:42:05.516Z,102384.00
2023-05-14T07:44:33.309Z,102386.00
2023-05-14T07:47:01.226Z,102385.60
2023-05-14T07:49:29.410Z,102380.40
2023-05-14T07:51:57.319Z,102378.40
2023-05-14T07:54:25.362Z,102370.80
2023-05-14T07:56:53.409Z,102368.80
2023-05-14T07:59:21.930Z,102365.00
2023-05-14T08:01:51.210Z,102364.20
2023-05-14T08:04:19.249Z,102366.20
2023-05-14T08:06:47.385Z,102366.00
2023-05-14T08:09:16.097Z,102365.00
2023-05-14T08:11:44.106Z,102359.40
2023-05-14T08:14:12.309Z,102354.60
2023-05-14T08:16:41.364Z,102354.00
2023-05-14T08:19:09.772Z,102347.20
2023-05-14T08:21:37.584Z,102353.00
2023-05-14T08:24:06.896Z,102353.40
2023-05-14T08:26:35.049Z,102354.20
2023-05-14T08:29:02.961Z,102352.80
2023-05-14T08:31:32.000Z,102352.60
2023-05-14T08:33:59.884Z,102351.20
2023-05-14T08:36:27.856Z,102352.00
2023-05-14T08:38:55.818Z,102359.40
2023-05-14T08:41:25.547Z,102355.20
2023-05-14T08:44:13.633Z,102361.60
2023-05-14T08:46:42.334Z,102357.80
2023-05-14T08:49:37.015Z,102352.80
2023-05-14T08:52:06.104Z,102361.00
2023-05-14T08:54:36.201Z,102363.60
2023-05-14T08:57:05.545Z,102359.00
2023-05-14T08:59:33.800Z,102363.40
2023-05-14T09:02:05.225Z,102372.80
2023-05-14T09:04:35.026Z,102368.60
2023-05-14T09:07:04.169Z,102371.00
2023-05-14T09:09:32.525Z,102374.00
2023-05-14T09:12:02.362Z,102379.60
2023-05-14T09:14:30.136Z,102382.20
2023-05-14T09:16:58.185Z,102387.20
2023-05-14T09:19:26.532Z,102388.20
2023-05-14T09:21:59.126Z,102389.80
2023-05-14T09:24:31.782Z,102389.80
2023-05-14T09:27:04.436Z,102390.80
2023-05-14T09:29:34.901Z,102389.20
2023-05-14T09:32:06.518Z,102388.80
2023-05-14T09:34:38.155Z,102389.40
2023-05-14T09:37:08.952Z,102379.00
2023-05-14T09:39:38.977Z,102392.00
2023-05-14T09:42:08.393Z,102387.40
2023-05-14T09:44:38.212Z,102383.40
2023-05-14T09:47:08.427Z,102383.40
2023-05-14T09:49:36.337Z,102382.00
2023-05-14T09:52:07.153Z,102376.00
2023-05-14T09:54:36.215Z,102381.80
2023-05-14T09:57:04.101Z,102378.20
2023-05-14T09:59:31.898Z,102380.60
2023-05-14T10:02:01.017Z,102373.20
2023-05-14T10:04:29.127Z,102365.40
2023-05-14T10:06:57.606Z,102365.60
2023-05-14T10:09:31.448Z,102362.80
2023-05-14T10:12:01.464Z,102355.80
2023-05-14T10:14:49.842Z,102360.80
2023-05-14T10:17:22.174Z,102355.80
2023-05-14T10:19:57.554Z,102350.60
2023-05-14T10:22:33.657Z,102347.60
2023-05-14T10:25:04.174Z,102345.80
2023-05-14T10:27:32.612Z,102343.80
2023-05-14T10:30:00.460Z,102342.20
2023-05-14T10:32:33.160Z,102335.80
2023-05-14T10:35:02.046Z,102336.80
2023-05-14T10:37:31.125Z,102331.00
2023-05-14T10:40:06.773Z,102333.40
2023-05-14T10:42:43.425Z,102333.60
2023-05-14T10:45:17.701Z,102324.20
2023-05-14T10:47:47.531Z,102321.00
2023-05-14T10:50:17.848Z,102320.20
2023-05-14T10:52:46.349Z,102317.60
2023-05-14T10:55:17.035Z,102312.80
2023-05-14T10:57:46.722Z,102302.80
2023-05-14T11:00:16.239Z,102302.80
2023-05-14T11:02:45.743Z,102301.80
2023-05-14T11:05:17.832Z,102296.60
2023-05-14T11:07:50.094Z,102291.40
2023-05-14T11:10:21.097Z,102285.80
2023-05-14T11:12:51.621Z,102287.00
2023-05-14T11:15:27.002Z,102282.00
2023-05-14T11:17:56.612Z,102282.00
2023-05-14T11:20:25.321Z,102284.80
2023-05-14T11:22:53.613Z,102287.00
2023-05-14T11:25:23.340Z,102283.60
2023-05-14T11:27:52.370Z,102283.60
2023-05-14T11:30:21.971Z,102271.80
2023-05-14T11:32:51.436Z,102278.80
2023-05-14T11:35:19.794Z,102281.00
2023-05-14T11:37:52.753Z,102270.60
2023-05-14T11:40:21.317Z,102265.40
2023-05-14T11:42:53.425Z,102260.60
2023-05-14T11:45:27.364Z,102262.20
2023-05-14T11:47:56.061Z,102255.20
2023-05-14T11:50:24.349Z,102252.60
2023-05-14T11:52:57.521Z,102251.40
2023-05-14T11:55:25.762Z,102247.00
2023-05-14T11:57:54.414Z,102239.00
2023-05-14T12:00:24.869Z,102246.00
2023-05-14T12:02:54.753Z,102242.60
2023-05-14T12:05:22.730Z,102237.60
2023-05-14T12:07:51.032Z,102230.00
2023-05-14T12:10:18.955Z,102221.80
2023-05-14T12:12:49.121Z,102220.40
2023-05-14T12:15:22.179Z,102224.80
2023-05-14T12:17:51.977Z,102226.00
2023-05-14T12:20:20.218Z,102224.20
2023-05-14T12:22:48.097Z,102227.00
2023-05-14T12:25:16.188Z,102221.20
2023-05-14T12:27:46.442Z,102219.20
2023-05-14T12:32:46.899Z,102202.60
2023-05-14T12:35:14.794Z,102202.20
2023-05-14T12:37:43.137Z,102199.80
2023-05-14T12:40:11.684Z,102193.20
2023-05-14T12:42:40.075Z,102197.20
2023-05-14T12:45:08.864Z,102203.60
2023-05-14T12:47:37.505Z,102199.40
2023-05-14T12:50:06.646Z,102200.00
2023-05-14T12:52:39.329Z,102190.20
2023-05-14T12:55:09.783Z,102183.40
2023-05-14T12:57:39.491Z,102181.00
2023-05-14T13:00:14.173Z,102174.20
2023-05-14T13:02:43.698Z,102171.20
2023-05-14T13:05:12.927Z,102161.20
2023-05-14T13:07:41.206Z,102159.00
2023-05-14T13:10:10.178Z,102157.60
2023-05-14T13:12:39.029Z,102158.00
2023-05-14T13:15:07.778Z,102152.60
2023-05-14T13:17:37.358Z,102144.60
2023-05-14T13:20:06.387Z,102141.60
2023-05-14T13:22:34.276Z,102143.60
2023-05-14T13:25:03.886Z,102136.60
2023-05-14T13:27:31.789Z,102138.40
2023-05-14T13:30:06.171Z,102138.60
2023-05-14T13:32:34.790Z,102137.60
2023-05-14T13:35:02.665Z,102127.00
2023-05-14T13:37:30.637Z,102114.40
2023-05-14T13:39:58.608Z,102125.60
2023-05-14T13:42:27.209Z,102116.40
2023-05-14T13:44:56.497Z,102118.80
2023-05-14T13:47:26.675Z,102112.40
2023-05-14T13:49:56.876Z,102099.20
2023-05-14T13:52:25.374Z,102100.40
2023-05-14T13:54:53.573Z,102091.40
2023-05-14T13:57:22.113Z,102087.60
2023-05-14T13:59:49.991Z,102087.80
2023-05-14T14:02:18.205Z,102087.80
2023-05-14T14:04:46.100Z,102086.20
2023-05-14T14:07:14.002Z,102083.80
2023-05-14T14:09:41.825Z,102088.20
2023-05-14T14:12:10.186Z,102082.60
2023-05-14T14:14:38.065Z,102082.00
2023-05-14T14:17:06.032Z,102077.40
2023-05-14T14:19:33.927Z,102076.20
2023-05-14T14:22:02.066Z,102066.00
2023-05-14T14:24:32.155Z,102061.40
2023-05-14T14:27:02.776Z,102058.00
2023-05-14T14:29:33.093Z,102041.20
2023-05-14T14:32:01.204Z,102045.60
2023-05-14T14:34:30.709Z,102038.80
2023-05-14T14:36:58.570Z,102048.80
2023-05-14T14:39:32.460Z,102041.40
2023-05-14T14:42:04.905Z,102040.80
2023-05-14T14:44:32.977Z,102038.00
2023-05-14T14:47:00.769Z,102042.80
2023-05-14T14:49:33.337Z,102036.60
2023-05-14T14:52:01.977Z,102039.60
2023-05-14T14:54:30.241Z,102046.80
2023-05-14T14:56:58.085Z,102036.00
2023-05-14T14:59:26.010Z,102038.80
2023-05-14T15:01:53.819Z,102028.00
2023-05-14T15:04:23.141Z,102034.40
2023-05-14T15:06:51.006Z,102030.20
2023-05-14T15:09:18.899Z,102030.40
2023-05-14T15:11:47.227Z,102034.20
2023-05-14T15:14:15.143Z,102028.60
2023-05-14T15:16:43.097Z,102029.80
2023-05-14T15:19:11.291Z,102027.40
2023-05-14T15:21:39.680Z,102028.20
2023-05-14T15:24:12.655Z,102022.80
2023-05-14T15:26:41.242Z,102016.20
2023-05-14T15:29:09.100Z,102015.00
2023-05-14T15:31:37.061Z,102010.60
2023-05-14T15:34:05.350Z,102006.40
2023-05-14T15:36:33.190Z,102004.60
2023-05-14T15:39:01.206Z,102004.20
2023-05-14T15:41:29.612Z,102002.00
2023-05-14T15:43:58.663Z,102005.40
2023-05-14T15:46:27.680Z,102003.60
2023-05-14T15:48:56.229Z,102000.80
2023-05-14T15:51:24.033Z,101989.80
2023-05-14T15:53:54.230Z,102000.40
2023-05-14T15:56:22.976Z,102009.60
2023-05-14T15:58:52.713Z,102006.00
2023-05-14T16:01:22.384Z,101997.00
2023-05-14T16:03:50.453Z,102003.40
2023-05-14T16:06:18.630Z,102008.40
2023-05-14T16:08:49.653Z,102004.20
2023-05-14T16:11:18.849Z,101996.00
2023-05-14T16:13:46.946Z,101988.00
2023-05-14T16:16:15.341Z,101990.40
2023-05-14T16:18:44.025Z,101991.00
2023-05-14T16:21:12.684Z,101985.40
2023-05-14T16:23:40.880Z,101991.20
2023-05-14T16:26:09.400Z,101983.80
2023-05-14T16:28:41.722Z,101978.40
2023-05-14T16:31:11.846Z,101976.00
2023-05-14T16:33:40.087Z,101973.80
2023-05-14T16:36:08.999Z,101962.00
2023-05-14T16:38:41.448Z,101956.40
2023-05-14T16:41:16.350Z,101959.00
2023-05-14T16:43:45.745Z,101954.20
2023-05-14T16:46:14.386Z,101954.80
2023-05-14T16:48:43.488Z,101947.20
2023-05-14T16:51:12.360Z,101944.00
2023-05-14T16:53:40.405Z,101944.60
2023-05-14T16:56:09.352Z,101946.60
2023-05-14T16:58:37.313Z,101946.60
2023-05-14T17:01:07.379Z,101938.60
2023-05-14T17:03:37.717Z,101936.80
2023-05-14T17:06:06.032Z,101928.80
2023-05-14T17:08:35.657Z,101930.60
2023-05-14T17:11:06.103Z,101933.40
2023-05-14T17:13:33.648Z,101932.00
2023-05-14T17:16:16.049Z,101930.00
2023-05-14T17:18:42.815Z,101925.20
2023-05-14T17:21:10.889Z,101923.60
2023-05-14T17:23:38.699Z,101924.80
2023-05-14T17:26:07.020Z,101928.60
2023-05-14T17:28:36.746Z,101927.00
2023-05-14T17:31:05.159Z,101922.20
2023-05-14T17:33:33.081Z,101916.40
2023-05-14T17:36:01.597Z,101911.80
2023-05-14T17:38:29.605Z,101911.80
2023-05-14T17:40:57.848Z,101911.20
2023-05-14T17:43:26.006Z,101909.60
2023-05-14T17:45:54.929Z,101904.80
2023-05-14T17:48:24.172Z,101908.60
2023-05-14T17:50:54.881Z,101902.20
2023-05-14T17:53:22.704Z,101901.40
2023-05-14T17:55:51.801Z,101897.80
2023-05-14T17:58:19.756Z,101898.80
2023-05-14T18:00:47.607Z,101898.80
2023-05-14T18:03:16.214Z,101889.20
2023-05-14T18:05:44.535Z,101896.80
2023-05-14T18:08:12.428Z,101886.80
2023-05-14T18:10:42.280Z,101885.60
2023-05-14T18:13:12.468Z,101882.60
2023-05-14T18:15:40.425Z,101885.40
2023-05-14T18:18:08.954Z,101881.20
2023-05-14T18:20:37.009Z,101881.00
2023-05-14T18:23:04.940Z,101883.60
2023-05-14T18:25:34.514Z,101886.80
2023-05-14T18:28:02.441Z,101888.00
2023-05-14T18:30:31.600Z,101881.20
2023-05-14T18:32:59.984Z,101884.60
2023-05-14T18:35:28.396Z,101889.60
2023-05-14T18:37:56.464Z,101886.20
2023-05-14T18:40:29.399Z,101891.40
2023-05-14T18:42:58.202Z,101892.00
2023-05-14T18:45:26.293Z,101891.40
2023-05-14T18:47:55.565Z,101893.60
2023-05-14T18:50:23.748Z,101897.80
2023-05-14T18:52:52.499Z,101896.20
2023-05-14T18:55:20.447Z,101901.60
2023-05-14T18:57:48.435Z,101901.60
2023-05-14T19:00:16.556Z,101895.80
2023-05-14T19:02:45.019Z,101898.60
2023-05-14T19:05:13.988Z,101897.40
2023-05-14T19:07:43.063Z,101895.00
2023-05-14T19:10:14.221Z,101896.60
2023-05-14T19:12:44.071Z,101895.00
2023-05-14T19:15:14.724Z,101892.80
2023-05-14T19:17:43.999Z,101891.60
2023-05-14T19:20:12.510Z,101890.20
2023-05-14T19:22:40.468Z,101891.40
2023-05-14T19:25:09.253Z,101892.80
2023-05-14T19:27:38.413Z,101891.40
2023-05-14T19:30:07.153Z,101888.40
2023-05-14T19:32:37.864Z,101884.60
2023-05-14T19:35:06.305Z,101882.80
2023-05-14T19:37:34.551Z,101883.60
2023-05-14T19:40:03.563Z,101879.80
2023-05-14T19:42:33.948Z,101883.40
2023-05-14T19:45:01.941Z,101880.60
2023-05-14T19:47:30.134Z,101882.60
2023-05-14T19:49:58.379Z,101881.40
2023-05-14T19:52:26.242Z,101877.40
2023-05-14T19:54:54.136Z,101876.60
2023-05-14T19:57:21.943Z,101874.60
2023-05-14T19:59:49.745Z,101878.00
2023-05-14T20:02:21.900Z,101876.80
2023-05-14T20:04:50.065Z,101870.20
2023-05-14T20:07:18.939Z,101871.60
2023-05-14T20:09:47.619Z,101873.40
2023-05-14T20:12:16.826Z,101871.20
2023-05-14T20:14:45.267Z,101870.60
2023-05-14T20:17:13.478Z,101868.60
2023-05-14T20:19:41.706Z,101861.40
2023-05-14T20:22:11.368Z,101857.40
2023-05-14T20:24:41.354Z,101854.40
2023-05-14T20:27:09.755Z,101854.80
2023-05-14T20:29:37.671Z,101860.20
2023-05-14T20:32:09.963Z,101850.80
2023-05-14T20:34:37.942Z,101854.40
2023-05-14T20:37:06.876Z,101852.40
2023-05-14T20:39:34.894Z,101847.80
2023-05-14T20:42:02.707Z,101838.20
2023-05-14T20:44:31.186Z,101837.60
2023-05-14T20:46:59.650Z,101838.80
2023-05-14T20:49:28.451Z,101844.40
2023-05-14T20:51:56.316Z,101842.20
2023-05-14T20:54:24.242Z,101844.00
2023-05-14T20:56:54.294Z,101842.80
2023-05-14T20:59:22.145Z,101838.80
2023-05-14T21:01:51.087Z,101836.00
2023-05-14T21:04:19.080Z,101839.20
2023-05-14T21:06:48.562Z,101834.80
2023-05-14T21:09:17.928Z,101836.20
2023-05-14T21:11:45.994Z,101830.60
2023-05-14T21:14:13.951Z,101828.20
2023-05-14T21:16:43.540Z,101828.80
2023-05-14T21:19:13.323Z,101825.80
2023-05-14T21:21:43.206Z,101825.40
2023-05-14T21:24:11.226Z,101822.20
2023-05-14T21:26:40.399Z,101824.80
2023-05-14T21:29:10.103Z,101823.20
2023-05-14T21:31:39.345Z,101820.40
2023-05-14T21:34:07.332Z,101825.00
2023-05-14T21:36:35.273Z,101825.00
2023-05-14T21:39:03.190Z,101822.80
2023-05-14T21:41:32.534Z,101822.00
2023-05-14T21:44:00.540Z,101822.00
2023-05-14T21:46:29.127Z,101818.00
2023-05-14T21:48:57.498Z,101817.00
2023-05-14T21:51:25.543Z,101813.60
2023-05-14T21:53:53.838Z,101812.20
2023-05-14T21:56:22.654Z,101810.60
2023-05-14T21:58:51.567Z,101807.40
2023-05-14T22:01:19.840Z,101810.40
2023-05-14T22:03:47.770Z,101815.00
2023-05-14T22:06:15.631Z,101816.60
2023-05-14T22:08:43.799Z,101817.80
2023-05-14T22:11:12.469Z,101814.60
2023-05-14T22:13:41.161Z,101822.80
2023-05-14T22:16:13.710Z,101823.00
2023-05-14T22:18:42.749Z,101825.20
2023-05-14T22:21:10.603Z,101821.20
2023-05-14T22:23:38.501Z,101823.40
2023-05-14T22:26:06.276Z,101818.80
2023-05-14T22:28:34.137Z,101820.20
2023-05-14T22:31:02.219Z,101820.00
2023-05-14T22:33:33.297Z,101824.60
2023-05-14T22:36:01.276Z,101823.00
2023-05-14T22:38:29.426Z,101821.60
2023-05-14T22:40:57.300Z,101829.00
2023-05-14T22:43:25.790Z,101827.60
2023-05-14T22:45:53.631Z,101826.40
2023-05-14T22:48:22.702Z,101821.60
2023-05-14T22:50:51.900Z,101825.60
2023-05-14T22:53:19.739Z,101825.80
2023-05-14T22:55:47.669Z,101823.80
2023-05-14T22:58:15.461Z,101820.20
2023-05-14T23:00:45.281Z,101820.80
2023-05-14T23:03:13.147Z,101820.00
2023-05-14T23:05:41.100Z,101820.00
2023-05-14T23:08:09.228Z,101818.00
2023-05-14T23:10:37.209Z,101821.80
2023-05-14T23:13:05.120Z,101817.20
2023-05-14T23:15:33.483Z,101812.40
2023-05-14T23:18:01.611Z,101805.40
2023-05-14T23:20:30.796Z,101794.80
2023-05-14T23:22:58.703Z,101784.80
2023-05-14T23:25:29.145Z,101786.40
2023-05-14T23:27:57.260Z,101788.00
2023-05-14T23:30:25.188Z,101784.40
2023-05-14T23:32:53.408Z,101786.00
2023-05-14T23:35:21.588Z,101781.20
2023-05-14T23:37:51.218Z,101779.20
2023-05-14T23:40:18.993Z,101783.80
2023-05-14T23:42:47.088Z,101780.60
2023-05-14T23:45:15.296Z,101781.00
2023-05-14T23:47:43.887Z,101778.00
2023-05-14T23:50:12.112Z,101779.40
2023-05-14T23:52:40.413Z,101777.00
2023-05-14T23:55:08.832Z,101773.20
2023-05-14T23:57:37.104Z,101769.00
